sensor_id;sensor_type;location;lat;lon;timestamp;pressure;altitude;pressure_sealevel;temperature;humidity
49461;BME280;35355;49.198;-0.368;2024-02-04T00:00:44;102681.31;;;10.59;80.63
49461;BME280;35355;49.198;-0.368;2024-02-04T00:03:10;102676.47;;;10.61;80.91
49461;BME280;35355;49.198;-0.368;2024-02-04T00:05:35;102684.47;;;10.63;80.88
49461;BME280;35355;49.198;-0.368;2024-02-04T00:08:01;102686.97;;;10.64;81.12
49461;BME280;35355;49.198;-0.368;2024-02-04T00:10:27;102668.50;;;10.66;80.95
49461;BME280;35355;49.198;-0.368;2024-02-04T00:12:53;102671.84;;;10.68;81.18
49461;BME280;35355;49.198;-0.368;2024-02-04T00:15:18;102656.31;;;10.62;81.19
49461;BME280;35355;49.198;-0.368;2024-02-04T00:17:44;102663.03;;;10.66;81.17
49461;BME280;35355;49.198;-0.368;2024-02-04T00:20:10;102664.72;;;10.67;80.86
49461;BME280;35355;49.198;-0.368;2024-02-04T00:22:35;102660.91;;;10.68;81.18
49461;BME280;35355;49.198;-0.368;2024-02-04T00:25:01;102651.91;;;10.68;80.84
49461;BME280;35355;49.198;-0.368;2024-02-04T00:27:33;102659.88;;;10.69;80.84
49461;BME280;35355;49.198;-0.368;2024-02-04T00:29:59;102654.63;;;10.68;81.29
49461;BME280;35355;49.198;-0.368;2024-02-04T00:32:25;102644.75;;;10.67;81.13
49461;BME280;35355;49.198;-0.368;2024-02-04T00:34:51;102652.94;;;10.67;81.05
49461;BME280;35355;49.198;-0.368;2024-02-04T00:37:16;102643.09;;;10.66;81.14
49461;BME280;35355;49.198;-0.368;2024-02-04T00:39:42;102640.34;;;10.66;81.29
49461;BME280;35355;49.198;-0.368;2024-02-04T00:42:07;102648.56;;;10.66;81.26
49461;BME280;35355;49.198;-0.368;2024-02-04T00:44:32;102635.09;;;10.64;81.08
49461;BME280;35355;49.198;-0.368;2024-02-04T00:46:58;102638.66;;;10.65;81.01
49461;BME280;35355;49.198;-0.368;2024-02-04T00:49:23;102638.25;;;10.61;81.28
49461;BME280;35355;49.198;-0.368;2024-02-04T00:51:48;102634.69;;;10.61;81.19
49461;BME280;35355;49.198;-0.368;2024-02-04T00:54:14;102625.03;;;10.58;81.23
49461;BME280;35355;49.198;-0.368;2024-02-04T00:56:39;102620.84;;;10.56;81.00
49461;BME280;35355;49.198;-0.368;2024-02-04T00:59:04;102622.72;;;10.55;80.85
49461;BME280;35355;49.198;-0.368;2024-02-04T01:01:30;102620.22;;;10.53;81.54
49461;BME280;35355;49.198;-0.368;2024-02-04T01:03:55;102613.06;;;10.52;81.41
49461;BME280;35355;49.198;-0.368;2024-02-04T01:06:20;102616.00;;;10.51;81.70
49461;BME280;35355;49.198;-0.368;2024-02-04T01:08:45;102614.38;;;10.50;81.14
49461;BME280;35355;49.198;-0.368;2024-02-04T01:11:11;102612.06;;;10.47;81.07
49461;BME280;35355;49.198;-0.368;2024-02-04T01:13:36;102606.81;;;10.45;81.26
49461;BME280;35355;49.198;-0.368;2024-02-04T01:16:01;102609.75;;;10.44;81.50
49461;BME280;35355;49.198;-0.368;2024-02-04T01:18:27;102606.41;;;10.42;81.59
49461;BME280;35355;49.198;-0.368;2024-02-04T01:20:52;102604.53;;;10.35;81.21
49461;BME280;35355;49.198;-0.368;2024-02-04T01:23:17;102599.47;;;10.32;81.26
49461;BME280;35355;49.198;-0.368;2024-02-04T01:25:43;102602.63;;;10.29;81.28
49461;BME280;35355;49.198;-0.368;2024-02-04T01:28:09;102595.47;;;10.28;81.55
49461;BME280;35355;49.198;-0.368;2024-02-04T01:30:35;102603.66;;;10.28;81.95
49461;BME280;35355;49.198;-0.368;2024-02-04T01:33:00;102597.59;;;10.26;81.82
49461;BME280;35355;49.198;-0.368;2024-02-04T01:35:25;102597.59;;;10.26;81.87
49461;BME280;35355;49.198;-0.368;2024-02-04T01:37:51;102591.28;;;10.26;81.79
49461;BME280;35355;49.198;-0.368;2024-02-04T01:40:16;102594.00;;;10.26;82.15
49461;BME280;35355;49.198;-0.368;2024-02-04T01:42:42;102588.59;;;10.19;82.10
49461;BME280;35355;49.198;-0.368;2024-02-04T01:45:08;102598.84;;;10.24;81.61
49461;BME280;35355;49.198;-0.368;2024-02-04T01:47:34;102599.06;;;10.22;81.61
49461;BME280;35355;49.198;-0.368;2024-02-04T01:50:00;102600.97;;;10.22;82.03
49461;BME280;35355;49.198;-0.368;2024-02-04T01:52:27;102598.44;;;10.20;81.63
49461;BME280;35355;49.198;-0.368;2024-02-04T01:54:53;102606.44;;;10.22;82.05
49461;BME280;35355;49.198;-0.368;2024-02-04T01:57:19;102589.63;;;10.18;81.72
49461;BME280;35355;49.198;-0.368;2024-02-04T01:59:45;102596.34;;;10.22;82.05
49461;BME280;35355;49.198;-0.368;2024-02-04T02:02:10;102598.03;;;10.23;81.69
49461;BME280;35355;49.198;-0.368;2024-02-04T02:04:36;102595.91;;;10.25;81.92
49461;BME280;35355;49.198;-0.368;2024-02-04T02:07:01;102592.13;;;10.26;81.80
49461;BME280;35355;49.198;-0.368;2024-02-04T02:09:27;102596.75;;;10.26;81.65
49461;BME280;35355;49.198;-0.368;2024-02-04T02:14:50;102589.41;;;10.26;81.56
49461;BME280;35355;49.198;-0.368;2024-02-04T02:17:24;102592.13;;;10.26;81.43
49461;BME280;35355;49.198;-0.368;2024-02-04T02:20:14;102590.47;;;10.25;81.82
49461;BME280;35355;49.198;-0.368;2024-02-04T02:25:26;102584.16;;;10.25;81.44
49461;BME280;35355;49.198;-0.368;2024-02-04T02:27:52;102577.84;;;10.24;81.63
49461;BME280;35355;49.198;-0.368;2024-02-04T02:30:17;102569.66;;;10.24;81.46
49461;BME280;35355;49.198;-0.368;2024-02-04T02:32:48;102572.41;;;10.24;81.78
49461;BME280;35355;49.198;-0.368;2024-02-04T02:35:17;102576.41;;;10.22;81.41
49461;BME280;35355;49.198;-0.368;2024-02-04T02:37:47;102575.78;;;10.19;81.24
49461;BME280;35355;49.198;-0.368;2024-02-04T02:40:23;102573.25;;;10.18;81.27
49461;BME280;35355;49.198;-0.368;2024-02-04T02:42:53;102574.09;;;10.18;81.79
49461;BME280;35355;49.198;-0.368;2024-02-04T02:45:21;102568.00;;;10.16;81.36
49461;BME280;35355;49.198;-0.368;2024-02-04T02:47:48;102562.56;;;10.16;81.75
49461;BME280;35355;49.198;-0.368;2024-02-04T02:50:14;102571.56;;;10.17;81.68
49461;BME280;35355;49.198;-0.368;2024-02-04T02:52:39;102560.03;;;10.15;81.41
49461;BME280;35355;49.198;-0.368;2024-02-04T02:55:05;102555.63;;;10.14;81.50
49461;BME280;35355;49.198;-0.368;2024-02-04T02:57:31;102549.34;;;10.13;81.72
49461;BME280;35355;49.198;-0.368;2024-02-04T02:59:56;102552.91;;;10.14;81.57
49461;BME280;35355;49.198;-0.368;2024-02-04T03:02:21;102557.31;;;10.15;81.79
49461;BME280;35355;49.198;-0.368;2024-02-04T03:04:47;102558.34;;;10.14;81.58
49461;BME280;35355;49.198;-0.368;2024-02-04T03:07:12;102554.81;;;10.13;82.00
49461;BME280;35355;49.198;-0.368;2024-02-04T03:09:37;102555.63;;;10.14;81.58
49461;BME280;35355;49.198;-0.368;2024-02-04T03:12:03;102552.91;;;10.14;81.90
49461;BME280;35355;49.198;-0.368;2024-02-04T03:14:28;102565.28;;;10.16;81.81
49461;BME280;35355;49.198;-0.368;2024-02-04T03:16:53;102559.00;;;10.16;82.04
49461;BME280;35355;49.198;-0.368;2024-02-04T03:19:19;102561.91;;;10.21;82.07
49461;BME280;35355;49.198;-0.368;2024-02-04T03:21:44;102553.13;;;10.19;81.75
49461;BME280;35355;49.198;-0.368;2024-02-04T03:24:09;102548.91;;;10.23;81.68
49461;BME280;35355;49.198;-0.368;2024-02-04T03:26:35;102536.75;;;10.19;81.60
49461;BME280;35355;49.198;-0.368;2024-02-04T03:29:00;102547.66;;;10.19;81.54
49461;BME280;35355;49.198;-0.368;2024-02-04T03:31:25;102540.94;;;10.15;81.71
49461;BME280;35355;49.198;-0.368;2024-02-04T03:33:51;102541.38;;;10.12;81.48
49461;BME280;35355;49.198;-0.368;2024-02-04T03:36:19;102538.03;;;10.10;81.96
49461;BME280;35355;49.198;-0.368;2024-02-04T03:38:44;102547.69;;;10.06;81.73
49461;BME280;35355;49.198;-0.368;2024-02-04T03:41:10;102549.16;;;10.01;81.60
49461;BME280;35355;49.198;-0.368;2024-02-04T03:43:38;102544.13;;;9.98;81.35
49461;BME280;35355;49.198;-0.368;2024-02-04T03:46:03;102535.53;;;9.95;81.88
49461;BME280;35355;49.198;-0.368;2024-02-04T03:48:29;102530.94;;;9.95;81.69
49461;BME280;35355;49.198;-0.368;2024-02-04T03:50:54;102522.97;;;9.94;81.55
49461;BME280;35355;49.198;-0.368;2024-02-04T03:53:20;102531.34;;;9.92;81.86
49461;BME280;35355;49.198;-0.368;2024-02-04T03:55:48;102531.78;;;9.89;81.90
49461;BME280;35355;49.198;-0.368;2024-02-04T03:58:13;102532.63;;;9.90;81.63
49461;BME280;35355;49.198;-0.368;2024-02-04T04:00:39;102533.44;;;9.90;81.92
49461;BME280;35355;49.198;-0.368;2024-02-04T04:03:05;102535.13;;;9.91;81.58
49461;BME280;35355;49.198;-0.368;2024-02-04T04:05:30;102535.13;;;9.91;82.00
49461;BME280;35355;49.198;-0.368;2024-02-04T04:07:55;102531.34;;;9.92;81.72
49461;BME280;35355;49.198;-0.368;2024-02-04T04:10:21;102526.50;;;9.94;82.03
49461;BME280;35355;49.198;-0.368;2024-02-04T04:12:46;102529.25;;;9.94;81.88
49461;BME280;35355;49.198;-0.368;2024-02-04T04:15:12;102520.44;;;9.92;81.68
49461;BME280;35355;49.198;-0.368;2024-02-04T04:17:37;102532.63;;;9.90;81.48
49461;BME280;35355;49.198;-0.368;2024-02-04T04:20:04;102538.72;;;9.85;81.26
49461;BME280;35355;49.198;-0.368;2024-02-04T04:22:30;102545.22;;;9.84;81.92
49461;BME280;35355;49.198;-0.368;2024-02-04T04:24:55;102548.97;;;9.83;81.84
49461;BME280;35355;49.198;-0.368;2024-02-04T04:27:20;102551.69;;;9.83;81.85
49461;BME280;35355;49.198;-0.368;2024-02-04T04:29:45;102550.25;;;9.80;81.56
49461;BME280;35355;49.198;-0.368;2024-02-04T04:32:11;102548.38;;;9.81;81.78
49461;BME280;35355;49.198;-0.368;2024-02-04T04:34:36;102544.59;;;9.82;82.17
49461;BME280;35355;49.198;-0.368;2024-02-04T04:37:01;102549.84;;;9.83;81.86
49461;BME280;35355;49.198;-0.368;2024-02-04T04:39:27;102547.09;;;9.83;81.98
49461;BME280;35355;49.198;-0.368;2024-02-04T04:41:52;102550.03;;;9.89;81.79
49461;BME280;35355;49.198;-0.368;2024-02-04T04:44:17;102551.50;;;9.91;81.81
49461;BME280;35355;49.198;-0.368;2024-02-04T04:46:43;102550.25;;;9.94;81.86
49461;BME280;35355;49.198;-0.368;2024-02-04T04:49:09;102543.09;;;9.93;81.76
49461;BME280;35355;49.198;-0.368;2024-02-04T04:51:34;102536.81;;;9.92;82.02
49461;BME280;35355;49.198;-0.368;2024-02-04T04:54:00;102535.75;;;9.93;81.60
49461;BME280;35355;49.198;-0.368;2024-02-04T04:56:25;102530.28;;;9.93;81.96
49461;BME280;35355;49.198;-0.368;2024-02-04T04:58:51;102531.34;;;9.92;82.06
49461;BME280;35355;49.198;-0.368;2024-02-04T05:01:16;102522.97;;;9.94;82.10
49461;BME280;35355;49.198;-0.368;2024-02-04T05:03:42;102531.75;;;9.96;81.70
49461;BME280;35355;49.198;-0.368;2024-02-04T05:06:07;102524.19;;;9.98;81.98
49461;BME280;35355;49.198;-0.368;2024-02-04T05:08:32;102524.19;;;9.98;81.96
49461;BME280;35355;49.198;-0.368;2024-02-04T05:10:58;102525.03;;;9.98;81.82
49461;BME280;35355;49.198;-0.368;2024-02-04T05:13:23;102535.94;;;9.98;81.81
49461;BME280;35355;49.198;-0.368;2024-02-04T05:15:49;102529.84;;;9.96;81.94
49461;BME280;35355;49.198;-0.368;2024-02-04T05:18:14;102529.84;;;9.96;81.97
49461;BME280;35355;49.198;-0.368;2024-02-04T05:20:39;102532.59;;;9.96;81.59
49461;BME280;35355;49.198;-0.368;2024-02-04T05:23:04;102536.38;;;9.95;81.77
49461;BME280;35355;49.198;-0.368;2024-02-04T05:25:30;102540.97;;;9.95;81.38
49461;BME280;35355;49.198;-0.368;2024-02-04T05:27:56;102534.69;;;9.94;81.80
49461;BME280;35355;49.198;-0.368;2024-02-04T05:30:21;102540.75;;;9.96;81.67
49461;BME280;35355;49.198;-0.368;2024-02-04T05:32:47;102537.22;;;9.96;81.88
49461;BME280;35355;49.198;-0.368;2024-02-04T05:35:12;102537.81;;;9.98;81.89
49461;BME280;35355;49.198;-0.368;2024-02-04T05:37:37;102538.69;;;9.98;81.92
49461;BME280;35355;49.198;-0.368;2024-02-04T05:40:03;102542.03;;;10.00;82.03
49461;BME280;35355;49.198;-0.368;2024-02-04T05:42:29;102540.97;;;10.01;81.72
49461;BME280;35355;49.198;-0.368;2024-02-04T05:44:57;102539.28;;;10.00;81.70
49461;BME280;35355;49.198;-0.368;2024-02-04T05:47:22;102548.13;;;10.03;81.72
49461;BME280;35355;49.198;-0.368;2024-02-04T05:49:47;102536.56;;;10.00;81.99
49461;BME280;35355;49.198;-0.368;2024-02-04T05:52:14;102537.81;;;10.05;81.48
49461;BME280;35355;49.198;-0.368;2024-02-04T05:54:39;102547.69;;;10.06;81.73
49461;BME280;35355;49.198;-0.368;2024-02-04T05:57:05;102547.25;;;10.09;82.08
49461;BME280;35355;49.198;-0.368;2024-02-04T05:59:31;102550.59;;;10.11;81.69
49461;BME280;35355;49.198;-0.368;2024-02-04T06:01:56;102553.13;;;10.12;81.48
49461;BME280;35355;49.198;-0.368;2024-02-04T06:04:21;102550.16;;;10.14;81.51
49461;BME280;35355;49.198;-0.368;2024-02-04T06:06:47;102553.53;;;10.16;81.66
49461;BME280;35355;49.198;-0.368;2024-02-04T06:09:12;102550.81;;;10.16;81.68
49461;BME280;35355;49.198;-0.368;2024-02-04T06:11:37;102551.44;;;10.18;81.44
49461;BME280;35355;49.198;-0.368;2024-02-04T06:14:03;102542.84;;;10.14;81.93
49461;BME280;35355;49.198;-0.368;2024-02-04T06:16:28;102549.75;;;10.17;81.45
49461;BME280;35355;49.198;-0.368;2024-02-04T06:18:53;102542.63;;;10.16;81.70
49461;BME280;35355;49.198;-0.368;2024-02-04T06:21:22;102543.84;;;10.20;81.53
49461;BME280;35355;49.198;-0.368;2024-02-04T06:23:47;102529.38;;;10.19;81.57
49461;BME280;35355;49.198;-0.368;2024-02-04T06:26:13;102531.88;;;10.21;81.88
49461;BME280;35355;49.198;-0.368;2024-02-04T06:28:38;102530.84;;;10.22;81.85
49461;BME280;35355;49.198;-0.368;2024-02-04T06:31:03;102533.78;;;10.21;81.71
49461;BME280;35355;49.198;-0.368;2024-02-04T06:33:29;102537.56;;;10.19;81.46
49461;BME280;35355;49.198;-0.368;2024-02-04T06:35:54;102534.00;;;10.19;81.54
49461;BME280;35355;49.198;-0.368;2024-02-04T06:38:19;102535.88;;;10.18;81.35
49461;BME280;35355;49.198;-0.368;2024-02-04T06:40:45;102538.00;;;10.16;81.67
49461;BME280;35355;49.198;-0.368;2024-02-04T06:43:10;102539.91;;;10.16;81.41
49461;BME280;35355;49.198;-0.368;2024-02-04T06:45:35;102546.41;;;10.15;81.31
49461;BME280;35355;49.198;-0.368;2024-02-04T06:48:01;102543.66;;;10.15;81.31
49461;BME280;35355;49.198;-0.368;2024-02-04T06:50:26;102546.41;;;10.15;81.85
49461;BME280;35355;49.198;-0.368;2024-02-04T06:52:52;102551.03;;;10.14;81.40
49461;BME280;35355;49.198;-0.368;2024-02-04T06:55:17;102544.72;;;10.14;81.73
49461;BME280;35355;49.198;-0.368;2024-02-04T06:57:42;102541.97;;;10.14;81.84
49461;BME280;35355;49.198;-0.368;2024-02-04T07:00:08;102537.59;;;10.13;81.60
49461;BME280;35355;49.198;-0.368;2024-02-04T07:02:34;102538.44;;;10.13;81.69
49461;BME280;35355;49.198;-0.368;2024-02-04T07:05:00;102528.78;;;10.11;81.65
49461;BME280;35355;49.198;-0.368;2024-02-04T07:07:25;102531.28;;;10.12;81.69
49461;BME280;35355;49.198;-0.368;2024-02-04T07:09:50;102529.41;;;10.13;82.03
49461;BME280;35355;49.198;-0.368;2024-02-04T07:12:16;102527.72;;;10.12;81.95
49461;BME280;35355;49.198;-0.368;2024-02-04T07:14:41;102530.47;;;10.12;82.03
49461;BME280;35355;49.198;-0.368;2024-02-04T07:17:06;102528.78;;;10.11;81.96
49461;BME280;35355;49.198;-0.368;2024-02-04T07:19:32;102528.78;;;10.11;81.92
49461;BME280;35355;49.198;-0.368;2024-02-04T07:21:57;102530.88;;;10.09;81.76
49461;BME280;35355;49.198;-0.368;2024-02-04T07:24:22;102535.50;;;10.08;82.36
49461;BME280;35355;49.198;-0.368;2024-02-04T07:26:48;102537.59;;;10.06;81.67
49461;BME280;35355;49.198;-0.368;2024-02-04T07:29:13;102538.44;;;10.07;81.84
49461;BME280;35355;49.198;-0.368;2024-02-04T07:31:39;102527.94;;;10.04;82.04
49461;BME280;35355;49.198;-0.368;2024-02-04T07:34:05;102534.25;;;10.04;82.04
49461;BME280;35355;49.198;-0.368;2024-02-04T07:36:30;102543.28;;;10.05;81.77
49461;BME280;35355;49.198;-0.368;2024-02-04T07:38:56;102539.50;;;10.06;81.90
49461;BME280;35355;49.198;-0.368;2024-02-04T07:41:21;102532.38;;;10.05;82.15
49461;BME280;35355;49.198;-0.368;2024-02-04T07:43:46;102533.41;;;10.04;82.10
49461;BME280;35355;49.198;-0.368;2024-02-04T07:46:13;102535.91;;;10.05;81.98
49461;BME280;35355;49.198;-0.368;2024-02-04T07:48:39;102539.06;;;10.09;82.12
49461;BME280;35355;49.198;-0.368;2024-02-04T07:51:04;102535.09;;;10.11;82.35
49461;BME280;35355;49.198;-0.368;2024-02-04T07:53:29;102535.91;;;10.12;81.97
49461;BME280;35355;49.198;-0.368;2024-02-04T07:55:54;102531.28;;;10.12;81.79
49461;BME280;35355;49.198;-0.368;2024-02-04T07:58:21;102539.25;;;10.14;82.11
49461;BME280;35355;49.198;-0.368;2024-02-04T08:00:46;102538.81;;;10.17;82.13
49461;BME280;35355;49.198;-0.368;2024-02-04T08:03:12;102532.09;;;10.19;81.80
49461;BME280;35355;49.198;-0.368;2024-02-04T08:05:37;102545.53;;;10.21;82.04
49461;BME280;35355;49.198;-0.368;2024-02-04T08:08:03;102543.44;;;10.23;82.25
49461;BME280;35355;49.198;-0.368;2024-02-04T08:10:29;102547.84;;;10.24;81.86
49461;BME280;35355;49.198;-0.368;2024-02-04T08:12:54;102544.06;;;10.25;82.17
49461;BME280;35355;49.198;-0.368;2024-02-04T08:15:20;102546.34;;;10.28;81.93
49461;BME280;35355;49.198;-0.368;2024-02-04T08:17:46;102550.13;;;10.27;81.83
49461;BME280;35355;49.198;-0.368;2024-02-04T08:20:11;102548.47;;;10.26;81.52
49461;BME280;35355;49.198;-0.368;2024-02-04T08:22:37;102551.81;;;10.28;81.76
49461;BME280;35355;49.198;-0.368;2024-02-04T08:25:04;102555.59;;;10.27;81.84
49461;BME280;35355;49.198;-0.368;2024-02-04T08:27:30;102554.13;;;10.31;81.71
49461;BME280;35355;49.198;-0.368;2024-02-04T08:29:56;102558.13;;;10.35;81.95
49461;BME280;35355;49.198;-0.368;2024-02-04T08:32:21;102563.16;;;10.39;81.99
49461;BME280;35355;49.198;-0.368;2024-02-04T08:34:46;102562.72;;;10.42;81.79
49461;BME280;35355;49.198;-0.368;2024-02-04T08:37:12;102562.28;;;10.45;81.40
49461;BME280;35355;49.198;-0.368;2024-02-04T08:39:37;102556.81;;;10.45;81.61
49461;BME280;35355;49.198;-0.368;2024-02-04T08:42:03;102565.22;;;10.50;81.72
49461;BME280;35355;49.198;-0.368;2024-02-04T08:44:28;102563.31;;;10.50;81.32
49461;BME280;35355;49.198;-0.368;2024-02-04T08:46:53;102563.91;;;10.52;81.66
49461;BME280;35355;49.198;-0.368;2024-02-04T08:49:20;102566.88;;;10.51;80.94
49461;BME280;35355;49.198;-0.368;2024-02-04T08:51:46;102572.31;;;10.51;81.42
49461;BME280;35355;49.198;-0.368;2024-02-04T08:54:11;102572.31;;;10.51;81.42
49461;BME280;35355;49.198;-0.368;2024-02-04T08:56:37;102572.31;;;10.51;81.23
49461;BME280;35355;49.198;-0.368;2024-02-04T08:59:02;102572.31;;;10.51;81.10
49461;BME280;35355;49.198;-0.368;2024-02-04T09:01:27;102577.78;;;10.51;81.49
49461;BME280;35355;49.198;-0.368;2024-02-04T09:03:53;102572.31;;;10.51;81.46
49461;BME280;35355;49.198;-0.368;2024-02-04T09:06:18;102571.06;;;10.53;81.60
49461;BME280;35355;49.198;-0.368;2024-02-04T09:08:44;102568.56;;;10.52;81.00
49461;BME280;35355;49.198;-0.368;2024-02-04T09:11:09;102568.13;;;10.55;81.60
49461;BME280;35355;49.198;-0.368;2024-02-04T09:13:34;102563.50;;;10.56;81.18
49461;BME280;35355;49.198;-0.368;2024-02-04T09:16:00;102571.50;;;10.57;81.21
49461;BME280;35355;49.198;-0.368;2024-02-04T09:18:25;102560.13;;;10.60;81.27
49461;BME280;35355;49.198;-0.368;2024-02-04T09:20:50;102556.53;;;10.60;81.39
49461;BME280;35355;49.198;-0.368;2024-02-04T09:23:16;102559.06;;;10.61;81.30
49461;BME280;35355;49.198;-0.368;2024-02-04T09:25:41;102556.31;;;10.61;81.39
49461;BME280;35355;49.198;-0.368;2024-02-04T09:28:06;102559.47;;;10.65;81.24
49461;BME280;35355;49.198;-0.368;2024-02-04T09:30:32;102549.16;;;10.67;81.14
49461;BME280;35355;49.198;-0.368;2024-02-04T09:32:57;102557.78;;;10.70;81.27
49461;BME280;35355;49.198;-0.368;2024-02-04T09:35:23;102556.47;;;10.73;80.98
49461;BME280;35355;49.198;-0.368;2024-02-04T09:37:48;102548.91;;;10.75;81.34
49461;BME280;35355;49.198;-0.368;2024-02-04T09:40:14;102550.38;;;10.78;81.31
49461;BME280;35355;49.198;-0.368;2024-02-04T09:42:40;102545.53;;;10.80;80.94
49461;BME280;35355;49.198;-0.368;2024-02-04T09:45:05;102547.00;;;10.82;80.98
49461;BME280;35355;49.198;-0.368;2024-02-04T09:47:32;102550.34;;;10.84;80.92
49461;BME280;35355;49.198;-0.368;2024-02-04T09:49:59;102548.00;;;10.88;81.25
49461;BME280;35355;49.198;-0.368;2024-02-04T09:52:29;102552.41;;;10.89;81.02
49461;BME280;35355;49.198;-0.368;2024-02-04T09:55:01;102551.34;;;10.90;80.59
49461;BME280;35355;49.198;-0.368;2024-02-04T09:57:32;102551.13;;;10.92;80.51
49461;BME280;35355;49.198;-0.368;2024-02-04T09:59:59;102551.97;;;10.92;80.62
49461;BME280;35355;49.198;-0.368;2024-02-04T10:02:25;102553.66;;;10.93;80.60
49461;BME280;35355;49.198;-0.368;2024-02-04T10:04:50;102550.47;;;10.96;80.72
49461;BME280;35355;49.198;-0.368;2024-02-04T10:07:16;102548.34;;;10.98;80.56
49461;BME280;35355;49.198;-0.368;2024-02-04T10:09:44;102553.63;;;11.00;80.79
49461;BME280;35355;49.198;-0.368;2024-02-04T10:12:09;102558.66;;;11.03;80.43
49461;BME280;35355;49.198;-0.368;2024-02-04T10:14:35;102555.06;;;11.02;80.70
49461;BME280;35355;49.198;-0.368;2024-02-04T10:17:00;102556.34;;;11.00;80.59
49461;BME280;35355;49.198;-0.368;2024-02-04T10:19:25;102559.84;;;11.07;80.19
49461;BME280;35355;49.198;-0.368;2024-02-04T10:22:01;102559.44;;;11.10;80.37
49461;BME280;35355;49.198;-0.368;2024-02-04T10:24:27;102564.47;;;11.13;80.15
49461;BME280;35355;49.198;-0.368;2024-02-04T10:26:57;102564.84;;;11.17;80.46
49461;BME280;35355;49.198;-0.368;2024-02-04T10:29:23;102566.31;;;11.19;80.21
49461;BME280;35355;49.198;-0.368;2024-02-04T10:31:48;102557.88;;;11.21;79.93
49461;BME280;35355;49.198;-0.368;2024-02-04T10:34:14;102553.25;;;11.21;79.99
49461;BME280;35355;49.198;-0.368;2024-02-04T10:36:39;102562.31;;;11.22;80.14
49461;BME280;35355;49.198;-0.368;2024-02-04T10:39:05;102559.75;;;11.20;79.88
49461;BME280;35355;49.198;-0.368;2024-02-04T10:41:33;102562.72;;;11.19;79.90
49461;BME280;35355;49.198;-0.368;2024-02-04T10:44:02;102567.31;;;11.25;79.78
49461;BME280;35355;49.198;-0.368;2024-02-04T10:46:30;102565.78;;;11.29;79.85
49461;BME280;35355;49.198;-0.368;2024-02-04T10:48:57;102563.06;;;11.29;79.88
49461;BME280;35355;49.198;-0.368;2024-02-04T10:51:25;102562.00;;;11.30;79.42
49461;BME280;35355;49.198;-0.368;2024-02-04T10:53:53;102551.06;;;11.30;79.65
49461;BME280;35355;49.198;-0.368;2024-02-04T10:56:25;102558.38;;;11.36;79.95
49461;BME280;35355;49.198;-0.368;2024-02-04T10:58:51;102569.50;;;11.41;79.71
49461;BME280;35355;49.198;-0.368;2024-02-04T11:01:18;102557.72;;;11.41;79.56
49461;BME280;35355;49.198;-0.368;2024-02-04T11:03:45;102557.06;;;11.46;79.13
49461;BME280;35355;49.198;-0.368;2024-02-04T11:06:11;102555.75;;;11.48;79.34
49461;BME280;35355;49.198;-0.368;2024-02-04T11:08:40;102559.13;;;11.50;79.33
49461;BME280;35355;49.198;-0.368;2024-02-04T11:11:06;102558.69;;;11.53;79.13
49461;BME280;35355;49.198;-0.368;2024-02-04T11:13:32;102556.78;;;11.54;79.17
49461;BME280;35355;49.198;-0.368;2024-02-04T11:16:07;102560.16;;;11.56;78.99
49461;BME280;35355;49.198;-0.368;2024-02-04T11:18:50;102559.06;;;11.57;79.07
49461;BME280;35355;49.198;-0.368;2024-02-04T11:24:19;102558.16;;;11.63;79.28
49461;BME280;35355;49.198;-0.368;2024-02-04T11:26:49;102564.25;;;11.65;78.80
49461;BME280;35355;49.198;-0.368;2024-02-04T11:29:14;102566.53;;;11.68;78.66
49461;BME280;35355;49.198;-0.368;2024-02-04T11:31:41;102559.34;;;11.74;78.33
49461;BME280;35355;49.198;-0.368;2024-02-04T11:34:06;102554.25;;;11.77;78.61
49461;BME280;35355;49.198;-0.368;2024-02-04T11:36:38;102549.63;;;11.78;78.90
49461;BME280;35355;49.198;-0.368;2024-02-04T11:39:14;102546.03;;;11.77;78.53
49461;BME280;35355;49.198;-0.368;2024-02-04T11:41:47;102549.19;;;11.81;78.64
49461;BME280;35355;49.198;-0.368;2024-02-04T11:44:19;102547.88;;;11.84;78.13
49461;BME280;35355;49.198;-0.368;2024-02-04T11:46:48;102541.56;;;11.83;78.40
49461;BME280;35355;49.198;-0.368;2024-02-04T11:49:17;102549.56;;;11.85;78.16
49461;BME280;35355;49.198;-0.368;2024-02-04T11:51:46;102537.16;;;11.82;77.84
49461;BME280;35355;49.198;-0.368;2024-02-04T11:54:15;102533.97;;;11.85;77.70
49461;BME280;35355;49.198;-0.368;2024-02-04T11:56:42;102543.03;;;11.86;77.54
49461;BME280;35355;49.198;-0.368;2024-02-04T11:59:08;102545.75;;;11.86;77.69
49461;BME280;35355;49.198;-0.368;2024-02-04T12:01:34;102549.31;;;11.86;78.11
49461;BME280;35355;49.198;-0.368;2024-02-04T12:04:19;102549.31;;;11.86;78.20
49461;BME280;35355;49.198;-0.368;2024-02-04T12:06:45;102535.41;;;11.88;77.50
49461;BME280;35355;49.198;-0.368;2024-02-04T12:09:12;102543.63;;;11.88;77.44
49461;BME280;35355;49.198;-0.368;2024-02-04T12:11:38;102524.25;;;11.89;77.90
49461;BME280;35355;49.198;-0.368;2024-02-04T12:14:05;102529.69;;;11.96;77.85
49461;BME280;35355;49.198;-0.368;2024-02-04T12:16:31;102524.34;;;12.01;78.08
49461;BME280;35355;49.198;-0.368;2024-02-04T12:18:57;102519.88;;;12.07;77.68
49461;BME280;35355;49.198;-0.368;2024-02-04T12:21:25;102520.03;;;12.12;77.67
49461;BME280;35355;49.198;-0.368;2024-02-04T12:23:51;102517.31;;;12.12;77.29
49461;BME280;35355;49.198;-0.368;2024-02-04T12:26:16;102524.66;;;12.11;77.33
49461;BME280;35355;49.198;-0.368;2024-02-04T12:28:42;102527.41;;;12.11;77.23
49461;BME280;35355;49.198;-0.368;2024-02-04T12:31:15;102513.13;;;12.09;77.03
49461;BME280;35355;49.198;-0.368;2024-02-04T12:33:41;102517.13;;;12.07;77.30
49461;BME280;35355;49.198;-0.368;2024-02-04T12:36:07;102513.56;;;12.06;77.10
49461;BME280;35355;49.198;-0.368;2024-02-04T12:38:32;102499.13;;;11.99;77.51
49461;BME280;35355;49.198;-0.368;2024-02-04T12:41:02;102504.28;;;12.07;77.44
49461;BME280;35355;49.198;-0.368;2024-02-04T12:43:28;102493.31;;;12.07;76.80